createdAt,value
2018-12-19T00:00:22.823Z,97848.14
2018-12-19T00:02:52.253Z,97848.64
2018-12-19T00:05:21.758Z,97853.25
2018-12-19T00:07:51.068Z,97858.97
2018-12-19T00:10:20.360Z,97848.59
2018-12-19T00:12:49.728Z,97848.59
2018-12-19T00:15:19.059Z,97845.29
2018-12-19T00:17:48.360Z,97840.26
2018-12-19T00:20:17.604Z,97839.73
2018-12-19T00:22:46.896Z,97832.81
2018-12-19T00:25:16.429Z,97828.37
2018-12-19T00:27:45.980Z,97822.39
2018-12-19T00:30:15.345Z,97824.11
2018-12-19T00:32:44.829Z,97814.13
2018-12-19T00:35:14.101Z,97812.63
2018-12-19T00:37:43.429Z,97807.83
2018-12-19T00:40:12.711Z,97809.67
2018-12-19T00:42:42.208Z,97817.98
2018-12-19T00:45:11.511Z,97823.91
2018-12-19T00:47:40.838Z,97824.97
2018-12-19T00:50:10.444Z,97809.86
2018-12-19T00:52:39.744Z,97804.41
2018-12-19T00:55:09.336Z,97802.36
2018-12-19T00:57:38.628Z,97812.22
2018-12-19T01:00:09.444Z,97802.03
2018-12-19T01:02:38.749Z,97807.17
2018-12-19T01:05:08.112Z,97811.75
2018-12-19T01:07:37.469Z,97806.56
2018-12-19T01:10:07.213Z,97798.01
2018-12-19T01:12:36.613Z,97796.30
2018-12-19T01:15:07.174Z,97793.14
2018-12-19T01:17:36.436Z,97800.75
2018-12-19T01:20:06.322Z,97805.06
2018-12-19T01:22:35.692Z,97807.78
2018-12-19T01:25:05.500Z,97816.26
2018-12-19T01:27:34.800Z,97823.72
2018-12-19T01:30:04.504Z,97806.59
2018-12-19T01:32:33.797Z,97811.49
2018-12-19T01:35:03.190Z,97811.88
2018-12-19T01:37:32.479Z,97810.19
2018-12-19T01:40:01.893Z,97821.05
2018-12-19T01:42:31.140Z,97839.52
2018-12-19T01:45:00.456Z,97815.43
2018-12-19T01:47:29.760Z,97803.19
2018-12-19T01:49:59.101Z,97812.42
2018-12-19T01:52:28.424Z,97805.27
2018-12-19T01:54:57.664Z,97798.06
2018-12-19T01:57:26.912Z,97800.63
2018-12-19T01:59:56.167Z,97805.76
2018-12-19T02:02:25.531Z,97843.66
2018-12-19T02:04:54.868Z,97820.13
2018-12-19T02:07:24.198Z,97819.97
2018-12-19T02:09:53.550Z,97805.20
2018-12-19T02:12:22.864Z,97803.58
2018-12-19T02:14:52.222Z,97836.50
2018-12-19T02:17:21.496Z,97824.81
2018-12-19T02:19:50.781Z,97847.16
2018-12-19T02:22:20.064Z,97843.23
2018-12-19T02:24:49.370Z,97827.12
2018-12-19T02:27:18.682Z,97819.27
2018-12-19T02:29:48.017Z,97812.77
2018-12-19T02:32:17.397Z,97802.16
2018-12-19T02:34:46.683Z,97790.17
2018-12-19T02:37:15.941Z,97800.73
2018-12-19T02:39:45.226Z,97802.09
2018-12-19T02:42:14.602Z,97803.14
2018-12-19T02:44:43.992Z,97800.52
2018-12-19T02:47:13.317Z,97799.21
2018-12-19T02:49:43.735Z,97797.90
2018-12-19T02:52:13.155Z,97797.53
2018-12-19T02:54:42.780Z,97801.80
2018-12-19T02:57:12.176Z,97795.23
2018-12-19T02:59:41.610Z,97792.67
2018-12-19T03:02:10.891Z,97794.48
2018-12-19T03:04:40.335Z,97799.91
2018-12-19T03:07:09.729Z,97796.67
2018-12-19T03:09:42.860Z,97796.72
2018-12-19T03:12:10.288Z,97797.91
2018-12-19T03:14:39.603Z,97797.54
2018-12-19T03:17:08.994Z,97798.47
2018-12-19T03:19:38.343Z,97793.05
2018-12-19T03:22:07.705Z,97790.41
2018-12-19T03:24:37.075Z,97783.59
2018-12-19T03:27:06.347Z,97774.73
2018-12-19T03:29:35.617Z,97771.80
2018-12-19T03:32:04.975Z,97770.85
2018-12-19T03:34:34.304Z,97779.79
2018-12-19T03:37:03.543Z,97774.41
2018-12-19T03:39:32.913Z,97776.53
2018-12-19T03:42:02.234Z,97783.34
2018-12-19T03:44:31.597Z,97777.48
2018-12-19T03:47:00.909Z,97780.16
2018-12-19T03:49:30.219Z,97772.85
2018-12-19T03:51:59.512Z,97771.08
2018-12-19T03:54:30.137Z,97767.25
2018-12-19T03:56:59.727Z,97768.78
2018-12-19T03:59:29.209Z,97764.77
2018-12-19T04:01:58.510Z,97770.38
2018-12-19T04:07:07.791Z,97765.20
2018-12-19T04:09:37.130Z,97778.31
2018-12-19T04:12:06.632Z,97775.94
2018-12-19T04:14:36.120Z,97767.64
2018-12-19T04:17:05.408Z,97774.55
2018-12-19T04:19:34.752Z,97777.61
2018-12-19T04:22:04.222Z,97778.64
2018-12-19T04:24:33.662Z,97775.80
2018-12-19T04:27:03.063Z,97770.55
2018-12-19T04:29:33.049Z,97771.97
2018-12-19T04:32:02.409Z,97777.03
2018-12-19T04:34:31.803Z,97779.09
2018-12-19T04:37:01.160Z,97779.59
2018-12-19T04:39:30.438Z,97775.89
2018-12-19T04:41:59.561Z,97779.12
2018-12-19T04:44:28.847Z,97795.30
2018-12-19T04:46:58.126Z,97798.84
2018-12-19T04:49:27.395Z,97781.92
2018-12-19T04:51:56.713Z,97779.80
2018-12-19T04:54:26.029Z,97777.19
2018-12-19T04:56:55.359Z,97778.81
2018-12-19T04:59:24.625Z,97775.55
2018-12-19T05:01:53.659Z,97790.81
2018-12-19T05:04:22.915Z,97799.00
2018-12-19T05:06:52.254Z,97792.03
2018-12-19T05:09:21.538Z,97777.32
2018-12-19T05:11:51.309Z,97767.63
2018-12-19T05:14:20.880Z,97776.53
2018-12-19T05:16:50.209Z,97775.22
2018-12-19T05:19:19.514Z,97772.73
2018-12-19T05:21:48.919Z,97779.47
2018-12-19T05:24:18.173Z,97779.31
2018-12-19T05:26:47.665Z,97780.03
2018-12-19T05:29:17.012Z,97779.22
2018-12-19T05:31:46.490Z,97778.80
2018-12-19T05:34:15.913Z,97780.13
2018-12-19T05:36:45.228Z,97783.16
2018-12-19T05:39:14.555Z,97775.06
2018-12-19T05:41:44.951Z,97769.05
2018-12-19T05:44:14.245Z,97779.79
2018-12-19T05:46:43.622Z,97788.27
2018-12-19T05:49:12.912Z,97783.00
2018-12-19T05:51:42.277Z,97791.11
2018-12-19T05:54:11.628Z,97803.19
2018-12-19T05:56:40.941Z,97786.05
2018-12-19T05:59:10.219Z,97799.47
2018-12-19T06:01:39.536Z,97801.16
2018-12-19T06:04:08.935Z,97804.27
2018-12-19T06:06:38.264Z,97803.27
2018-12-19T06:09:08.550Z,97805.27
2018-12-19T06:11:37.904Z,97803.77
2018-12-19T06:14:07.201Z,97808.94
2018-12-19T06:16:36.615Z,97803.29
2018-12-19T06:19:05.920Z,97808.38
2018-12-19T06:21:35.261Z,97807.28
2018-12-19T06:24:04.679Z,97810.55
2018-12-19T06:26:33.988Z,97813.69
2018-12-19T06:29:03.454Z,97809.92
2018-12-19T06:31:32.868Z,97809.96
2018-12-19T06:34:02.566Z,97808.46
2018-12-19T06:36:32.173Z,97814.00
2018-12-19T06:39:01.593Z,97803.66
2018-12-19T06:41:30.927Z,97814.98
2018-12-19T06:44:00.587Z,97810.19
2018-12-19T06:46:29.963Z,97801.35
2018-12-19T06:48:59.272Z,97802.80
2018-12-19T06:51:28.552Z,97807.75
2018-12-19T06:53:57.838Z,97816.27
2018-12-19T06:56:27.202Z,97819.67
2018-12-19T06:58:56.632Z,97821.23
2018-12-19T07:01:25.959Z,97815.45
2018-12-19T07:03:55.292Z,97807.28
2018-12-19T07:06:24.716Z,97797.03
2018-12-19T07:08:54.066Z,97802.11
2018-12-19T07:11:24.240Z,97802.39
2018-12-19T07:13:53.605Z,97805.95
2018-12-19T07:16:23.038Z,97810.00
2018-12-19T07:18:52.384Z,97812.81
2018-12-19T07:21:21.712Z,97817.06
2018-12-19T07:23:50.992Z,97823.23
2018-12-19T07:26:20.319Z,97822.28
2018-12-19T07:28:49.688Z,97826.33
2018-12-19T07:31:19.008Z,97831.91
2018-12-19T07:33:48.309Z,97831.41
2018-12-19T07:36:17.686Z,97829.60
2018-12-19T07:38:47.216Z,97840.45
2018-12-19T07:41:16.527Z,97842.30
2018-12-19T07:43:45.891Z,97839.05
2018-12-19T07:46:19.798Z,97838.80
2018-12-19T07:48:46.518Z,97851.33
2018-12-19T07:51:15.784Z,97852.27
2018-12-19T07:53:45.118Z,97843.66
2018-12-19T07:56:15.735Z,97843.34
2018-12-19T07:58:45.028Z,97846.38
2018-12-19T08:01:14.366Z,97844.47
2018-12-19T08:03:43.727Z,97842.36
2018-12-19T08:06:13.191Z,97848.13
2018-12-19T08:08:42.456Z,97847.82
2018-12-19T08:11:11.738Z,97847.94
2018-12-19T08:13:41.032Z,97846.44
2018-12-19T08:16:10.367Z,97843.98
2018-12-19T08:18:39.672Z,97860.09
2018-12-19T08:21:08.984Z,97855.22
2018-12-19T08:23:38.262Z,97852.27
2018-12-19T08:26:07.622Z,97856.72
2018-12-19T08:28:37.397Z,97857.54
2018-12-19T08:31:06.790Z,97859.23
2018-12-19T08:33:36.051Z,97851.05
2018-12-19T08:36:05.549Z,97850.05
2018-12-19T08:38:34.864Z,97852.80
2018-12-19T08:41:04.335Z,97851.58
2018-12-19T08:43:33.601Z,97855.09
2018-12-19T08:46:02.995Z,97851.67
2018-12-19T08:48:32.408Z,97848.54
2018-12-19T08:51:01.663Z,97851.30
2018-12-19T08:53:31.048Z,97850.28
2018-12-19T08:56:00.408Z,97857.27
2018-12-19T08:58:29.714Z,97859.09
2018-12-19T09:00:59.169Z,97852.91
2018-12-19T09:03:28.456Z,97860.59
2018-12-19T09:05:57.851Z,97851.17
2018-12-19T09:08:27.213Z,97851.40
2018-12-19T09:10:56.528Z,97844.59
2018-12-19T09:13:25.843Z,97851.61
2018-12-19T09:15:55.189Z,97845.11
2018-12-19T09:18:24.511Z,97856.98
2018-12-19T09:20:53.744Z,97858.80
2018-12-19T09:23:23.025Z,97856.88
2018-12-19T09:25:52.959Z,97855.84
2018-12-19T09:28:22.383Z,97858.36
2018-12-19T09:30:51.637Z,97856.63
2018-12-19T09:33:27.177Z,97859.56
2018-12-19T09:35:52.164Z,97855.30
2018-12-19T09:38:21.430Z,97852.05
2018-12-19T09:40:50.803Z,97854.19
2018-12-19T09:43:20.127Z,97855.98
2018-12-19T09:45:49.393Z,97853.14
2018-12-19T09:48:18.843Z,97848.68
2018-12-19T09:50:48.143Z,97852.61
2018-12-19T09:53:17.873Z,97848.48
2018-12-19T09:55:47.312Z,97854.38
2018-12-19T09:58:16.603Z,97851.03
2018-12-19T10:00:45.953Z,97847.11
2018-12-19T10:03:15.284Z,97847.81
2018-12-19T10:05:44.655Z,97848.91
2018-12-19T10:08:13.933Z,97847.70
2018-12-19T10:10:43.224Z,97845.96
2018-12-19T10:13:12.602Z,97847.28
2018-12-19T10:15:42.108Z,97841.47
2018-12-19T10:18:11.377Z,97839.84
2018-12-19T10:20:40.719Z,97832.68
2018-12-19T10:23:10.033Z,97835.20
2018-12-19T10:25:39.412Z,97841.09
2018-12-19T10:28:08.692Z,97837.41
2018-12-19T10:30:43.112Z,97831.89
2018-12-19T10:33:12.407Z,97823.91
2018-12-19T10:35:41.695Z,97817.38
2018-12-19T10:38:10.981Z,97821.83
2018-12-19T10:40:40.280Z,97820.52
2018-12-19T10:43:09.683Z,97815.81
2018-12-19T10:45:38.984Z,97816.83
2018-12-19T10:48:08.396Z,97808.13
2018-12-19T10:50:37.701Z,97799.53
2018-12-19T10:53:06.948Z,97806.77
2018-12-19T10:55:36.219Z,97798.28
2018-12-19T10:58:05.509Z,97796.64
2018-12-19T11:00:40.189Z,97798.90
2018-12-19T11:03:09.460Z,97797.66
2018-12-19T11:05:38.848Z,97794.18
2018-12-19T11:08:08.245Z,97791.19
2018-12-19T11:10:37.636Z,97794.38
2018-12-19T11:13:06.944Z,97782.98
2018-12-19T11:15:36.222Z,97786.55
2018-12-19T11:18:05.606Z,97779.77
2018-12-19T11:20:34.899Z,97774.54
2018-12-19T11:23:04.268Z,97774.98
2018-12-19T11:25:33.632Z,97774.68
2018-12-19T11:28:03.027Z,97772.62
2018-12-19T11:30:32.307Z,97769.47
2018-12-19T11:33:01.641Z,97769.94
2018-12-19T11:35:30.892Z,97765.74
2018-12-19T11:38:00.235Z,97765.54
2018-12-19T11:40:29.726Z,97767.44
2018-12-19T11:42:59.071Z,97766.11
2018-12-19T11:45:28.315Z,97769.80
2018-12-19T11:47:57.726Z,97757.95
2018-12-19T11:50:27.020Z,97757.07
2018-12-19T11:52:56.351Z,97754.36
2018-12-19T11:55:25.690Z,97749.18
2018-12-19T11:57:55.052Z,97744.05
2018-12-19T12:03:06.197Z,97744.39
2018-12-19T12:05:35.461Z,97733.60
2018-12-19T12:08:05.374Z,97736.08
2018-12-19T12:10:34.750Z,97733.90
2018-12-19T12:13:04.206Z,97735.89
2018-12-19T12:15:33.563Z,97726.70
2018-12-19T12:18:02.935Z,97726.76
2018-12-19T12:20:32.216Z,97721.92
2018-12-19T12:23:01.913Z,97710.08
2018-12-19T12:25:31.286Z,97721.63
2018-12-19T12:28:00.656Z,97718.07
2018-12-19T12:30:29.976Z,97717.65
2018-12-19T12:32:59.287Z,97717.56
2018-12-19T12:35:28.631Z,97710.74
2018-12-19T12:37:57.933Z,97709.86
2018-12-19T12:40:27.209Z,97702.19
2018-12-19T12:42:56.536Z,97702.28
2018-12-19T12:45:26.041Z,97703.25
2018-12-19T12:47:55.419Z,97708.03
2018-12-19T12:50:25.015Z,97704.73
2018-12-19T12:52:54.500Z,97698.03
2018-12-19T12:55:23.745Z,97694.20
2018-12-19T12:57:53.097Z,97691.91
2018-12-19T13:00:22.599Z,97690.06
2018-12-19T13:02:51.945Z,97693.44
2018-12-19T13:05:23.221Z,97700.31
2018-12-19T13:07:52.575Z,97693.64
2018-12-19T13:10:22.164Z,97696.23
2018-12-19T13:12:51.669Z,97690.48
2018-12-19T13:15:26.344Z,97686.16
2018-12-19T13:17:56.166Z,97685.86
2018-12-19T13:20:25.463Z,97679.46
2018-12-19T13:22:54.843Z,97676.00
2018-12-19T13:25:24.237Z,97673.60
2018-12-19T13:27:53.700Z,97668.02
2018-12-19T13:30:23.015Z,97668.02
2018-12-19T13:32:52.517Z,97665.37
2018-12-19T13:35:21.935Z,97662.00
2018-12-19T13:37:51.510Z,97658.91
2018-12-19T13:40:20.880Z,97652.96
2018-12-19T13:42:50.415Z,97657.44
2018-12-19T13:45:19.813Z,97657.47
2018-12-19T13:47:49.224Z,97655.75
2018-12-19T13:50:18.644Z,97656.42
2018-12-19T13:52:47.916Z,97652.81
2018-12-19T13:55:17.437Z,97651.64
2018-12-19T13:57:46.916Z,97652.09
2018-12-19T14:03:03.241Z,97638.78
2018-12-19T14:05:32.657Z,97638.81
2018-12-19T14:08:01.973Z,97637.04
2018-12-19T14:10:31.231Z,97627.13
2018-12-19T14:13:00.540Z,97629.27
2018-12-19T14:18:12.957Z,97627.34
2018-12-19T14:20:42.316Z,97625.45
2018-12-19T14:23:11.600Z,97620.83
2018-12-19T14:25:40.911Z,97622.95
2018-12-19T14:28:10.323Z,97630.44
2018-12-19T14:30:39.591Z,97632.50
2018-12-19T14:33:08.924Z,97632.66
2018-12-19T14:35:38.303Z,97634.69
2018-12-19T14:38:07.815Z,97636.70
2018-12-19T14:40:37.076Z,97640.00
2018-12-19T14:43:06.467Z,97644.14
2018-12-19T14:45:35.834Z,97637.03
2018-12-19T14:48:05.292Z,97642.24
2018-12-19T14:50:34.609Z,97639.37
2018-12-19T14:53:03.912Z,97637.61
2018-12-19T14:55:33.217Z,97632.77
2018-12-19T14:58:02.625Z,97631.89
2018-12-19T15:00:32.155Z,97622.34
2018-12-19T15:03:01.514Z,97620.38
2018-12-19T15:05:30.836Z,97623.75
2018-12-19T15:08:00.213Z,97612.11
2018-12-19T15:10:29.618Z,97608.58
2018-12-19T15:12:59.419Z,97592.75
2018-12-19T15:15:28.720Z,97609.19
2018-12-19T15:17:58.069Z,97598.24
2018-12-19T15:20:27.374Z,97597.06
2018-12-19T15:22:56.752Z,97597.52
2018-12-19T15:25:26.116Z,97608.08
2018-12-19T15:27:55.463Z,97613.59
2018-12-19T15:30:24.852Z,97622.44
2018-12-19T15:32:54.608Z,97623.16
2018-12-19T15:35:23.911Z,97620.78
2018-12-19T15:37:53.295Z,97612.54
2018-12-19T15:40:22.593Z,97595.45
2018-12-19T15:42:51.839Z,97606.24
2018-12-19T15:45:21.104Z,97602.08
2018-12-19T15:47:50.443Z,97603.09
2018-12-19T15:50:19.696Z,97607.05
2018-12-19T15:52:49.115Z,97604.72
2018-12-19T15:55:18.636Z,97611.73
2018-12-19T15:57:47.943Z,97617.92
2018-12-19T16:00:17.402Z,97616.88
2018-12-19T16:02:47.734Z,97619.22
2018-12-19T16:05:17.135Z,97626.41
2018-12-19T16:07:46.422Z,97630.70
2018-12-19T16:10:15.876Z,97629.89
2018-12-19T16:12:45.177Z,97628.58
2018-12-19T16:15:14.616Z,97622.99
2018-12-19T16:17:43.917Z,97628.51
2018-12-19T16:20:13.334Z,97641.34
2018-12-19T16:22:42.648Z,97637.27
2018-12-19T16:25:12.042Z,97637.88
2018-12-19T16:27:41.396Z,97628.64
2018-12-19T16:30:11.346Z,97621.61
2018-12-19T16:32:40.749Z,97630.47
2018-12-19T16:37:54.007Z,97632.37
2018-12-19T16:40:23.496Z,97627.36
2018-12-19T16:42:52.929Z,97639.10
2018-12-19T16:45:22.271Z,97638.42
2018-12-19T16:47:52.799Z,97634.60
2018-12-19T16:50:22.121Z,97637.41
2018-12-19T16:52:51.507Z,97636.91
2018-12-19T16:55:20.840Z,97639.23
2018-12-19T16:57:50.252Z,97646.75
2018-12-19T17:00:19.675Z,97654.19
2018-12-19T17:02:49.084Z,97643.84
2018-12-19T17:05:18.545Z,97648.34
2018-12-19T17:07:50.199Z,97643.33
2018-12-19T17:10:19.739Z,97641.00
2018-12-19T17:12:52.781Z,97639.23
2018-12-19T17:15:20.452Z,97640.55
2018-12-19T17:17:49.795Z,97642.28
2018-12-19T17:20:19.223Z,97645.59
2018-12-19T17:22:48.512Z,97640.25
2018-12-19T17:25:17.897Z,97644.14
2018-12-19T17:27:47.173Z,97644.08
2018-12-19T17:30:16.466Z,97644.14
2018-12-19T17:32:45.744Z,97646.88
2018-12-19T17:35:15.048Z,97643.64
2018-12-19T17:39:08.824Z,97652.87
2018-12-19T17:41:38.230Z,97666.44
2018-12-19T17:44:07.614Z,97661.30
2018-12-19T17:46:37.018Z,97664.41
2018-12-19T17:49:06.304Z,97672.67
2018-12-19T17:51:35.609Z,97672.09
2018-12-19T17:54:05.120Z,97672.09
2018-12-19T17:56:34.614Z,97677.88
2018-12-19T17:59:04.160Z,97677.30
2018-12-19T18:01:34.777Z,97681.34
2018-12-19T18:04:04.359Z,97681.95
2018-12-19T18:06:33.817Z,97678.36
2018-12-19T18:09:04.584Z,97680.39
2018-12-19T18:11:34.005Z,97686.98
2018-12-19T18:14:03.735Z,97683.95
2018-12-19T18:16:33.083Z,97679.04
2018-12-19T18:19:02.552Z,97675.72
2018-12-19T18:21:31.990Z,97674.23
2018-12-19T18:24:01.439Z,97676.97
2018-12-19T18:26:30.918Z,97670.64
2018-12-19T18:29:00.241Z,97670.59
2018-12-19T18:31:29.540Z,97668.83
2018-12-19T18:33:58.933Z,97674.27
2018-12-19T18:36:28.368Z,97671.47
2018-12-19T18:38:57.641Z,97670.66
2018-12-19T18:41:26.965Z,97670.81
2018-12-19T18:43:56.239Z,97677.72
2018-12-19T18:46:25.529Z,97671.18
2018-12-19T18:48:54.936Z,97670.02
2018-12-19T18:51:24.233Z,97663.92
2018-12-19T18:53:53.767Z,97666.20
2018-12-19T18:56:23.220Z,97662.58
2018-12-19T18:58:52.677Z,97663.84
2018-12-19T19:01:22.124Z,97657.53
2018-12-19T19:03:51.483Z,97654.49
2018-12-19T19:06:21.566Z,97656.72
2018-12-19T19:08:50.987Z,97649.59
2018-12-19T19:11:20.374Z,97644.90
2018-12-19T19:14:52.421Z,97638.95
2018-12-19T19:17:21.729Z,97634.40
2018-12-19T19:19:51.012Z,97625.88
2018-12-19T19:22:20.710Z,97630.64
2018-12-19T19:24:50.067Z,97626.47
2018-12-19T19:27:19.546Z,97631.88
2018-12-19T19:29:48.941Z,97634.16
2018-12-19T19:32:18.869Z,97627.12
2018-12-19T19:34:48.745Z,97633.33
2018-12-19T19:37:18.298Z,97630.37
2018-12-19T19:39:47.638Z,97624.52
2018-12-19T19:42:17.068Z,97625.03
2018-12-19T19:44:46.365Z,97615.63
2018-12-19T19:47:15.932Z,97627.02
2018-12-19T19:49:45.254Z,97620.91
2018-12-19T19:52:14.357Z,97624.27
2018-12-19T19:54:43.749Z,97621.83
2018-12-19T19:57:13.372Z,97629.11
2018-12-19T19:59:42.938Z,97628.55
2018-12-19T20:02:12.389Z,97633.63
2018-12-19T20:04:41.816Z,97629.37
2018-12-19T20:07:11.375Z,97623.73
2018-12-19T20:09:40.763Z,97639.80
2018-12-19T20:12:10.085Z,97640.86
2018-12-19T20:14:39.505Z,97639.68
2018-12-19T20:17:08.912Z,97643.41
2018-12-19T20:19:38.198Z,97640.41
2018-12-19T20:22:07.524Z,97636.08
2018-12-19T20:24:37.195Z,97637.20
2018-12-19T20:27:06.829Z,97630.44
2018-12-19T20:29:37.314Z,97628.00
2018-12-19T20:32:06.867Z,97626.11
2018-12-19T20:34:36.375Z,97624.55
2018-12-19T20:37:05.812Z,97623.26
2018-12-19T20:39:35.255Z,97619.66
2018-12-19T20:42:04.723Z,97626.92
2018-12-19T20:44:34.065Z,97615.17
2018-12-19T20:47:03.372Z,97623.53
2018-12-19T20:49:32.751Z,97630.37
2018-12-19T20:52:02.248Z,97629.55
2018-12-19T20:54:31.525Z,97629.84
2018-12-19T20:57:00.942Z,97628.97
2018-12-19T20:59:30.439Z,97630.16
2018-12-19T21:01:59.891Z,97626.70
2018-12-19T21:04:29.187Z,97622.42
2018-12-19T21:06:58.555Z,97623.68
2018-12-19T21:09:28.070Z,97619.91
2018-12-19T21:11:57.500Z,97626.52
2018-12-19T21:14:26.558Z,97619.09
2018-12-19T21:17:01.267Z,97625.75
2018-12-19T21:19:30.551Z,97618.94
2018-12-19T21:21:59.998Z,97621.06
2018-12-19T21:24:29.296Z,97618.34
2018-12-19T21:26:58.560Z,97616.66
2018-12-19T21:29:27.836Z,97616.23
2018-12-19T21:31:57.189Z,97608.45
2018-12-19T21:34:26.474Z,97605.72
2018-12-19T21:36:55.804Z,97605.94
2018-12-19T21:39:25.198Z,97600.30
2018-12-19T21:41:54.721Z,97602.50
2018-12-19T21:44:24.137Z,97603.86
2018-12-19T21:46:53.717Z,97595.53
2018-12-19T21:49:23.083Z,97583.58
2018-12-19T21:51:52.381Z,97588.81
2018-12-19T21:54:21.670Z,97588.23
2018-12-19T21:56:51.101Z,97585.81
2018-12-19T21:59:20.476Z,97595.55
2018-12-19T22:01:49.800Z,97597.62
2018-12-19T22:04:19.142Z,97600.46
2018-12-19T22:06:48.544Z,97602.94
2018-12-19T22:09:17.781Z,97614.95
2018-12-19T22:11:47.176Z,97614.09
2018-12-19T22:14:16.543Z,97612.20
2018-12-19T22:16:51.124Z,97614.40
2018-12-19T22:19:20.458Z,97621.06
2018-12-19T22:21:49.970Z,97626.20
2018-12-19T22:24:19.371Z,97616.39
2018-12-19T22:26:48.941Z,97613.61
2018-12-19T22:29:18.260Z,97620.08
2018-12-19T22:31:47.709Z,97619.12
2018-12-19T22:34:17.008Z,97616.86
2018-12-19T22:36:46.529Z,97614.94
2018-12-19T22:39:18.752Z,97606.30
2018-12-19T22:41:48.637Z,97605.86
2018-12-19T22:44:17.891Z,97611.50
2018-12-19T22:46:47.283Z,97606.32
2018-12-19T22:49:16.619Z,97605.72
2018-12-19T22:51:46.058Z,97608.01
2018-12-19T22:54:15.510Z,97608.82
2018-12-19T22:56:44.788Z,97600.73
2018-12-19T22:59:14.097Z,97601.61
2018-12-19T23:06:39.528Z,97618.27
2018-12-19T23:09:08.964Z,97617.41
2018-12-19T23:11:38.414Z,97619.75
2018-12-19T23:14:07.833Z,97625.60
2018-12-19T23:16:39.455Z,97625.54
2018-12-19T23:19:09.049Z,97634.78
2018-12-19T23:21:38.448Z,97635.61
2018-12-19T23:24:07.754Z,97629.56
2018-12-19T23:26:37.236Z,97634.98
2018-12-19T23:29:06.763Z,97629.34
2018-12-19T23:31:36.173Z,97630.90
2018-12-19T23:34:05.664Z,97629.44
2018-12-19T23:36:35.113Z,97632.26
2018-12-19T23:39:07.665Z,97627.86
2018-12-19T23:41:37.075Z,97625.15
2018-12-19T23:44:06.463Z,97626.61
2018-12-19T23:46:35.868Z,97627.42
2018-12-19T23:49:05.355Z,97625.80
2018-12-19T23:51:34.766Z,97633.79
2018-12-19T23:54:04.181Z,97631.35
2018-12-19T23:56:33.484Z,97630.34
2018-12-19T23:59:02.803Z,97633.34
